createdAt,value
2022-09-10T00:00:54.794Z,93.49
2022-09-10T00:03:57.844Z,93.05
2022-09-10T00:07:00.573Z,93.46
2022-09-10T00:10:03.620Z,93.45
2022-09-10T00:13:09.403Z,93.64
2022-09-10T00:16:14.380Z,93.48
2022-09-10T00:19:17.727Z,94.15
2022-09-10T00:22:20.671Z,93.88
2022-09-10T00:25:23.366Z,94.40
2022-09-10T00:28:32.588Z,94.59
2022-09-10T00:31:36.492Z,94.57
2022-09-10T00:34:39.568Z,94.37
2022-09-10T00:37:42.562Z,94.70
2022-09-10T00:40:46.361Z,94.67
2022-09-10T00:43:53.934Z,94.62
2022-09-10T00:46:57.683Z,94.59
2022-09-10T00:50:05.633Z,94.24
2022-09-10T00:53:12.822Z,94.22
2022-09-10T00:56:15.855Z,94.15
2022-09-10T00:59:22.362Z,94.04
2022-09-10T01:02:26.119Z,94.15
2022-09-10T01:05:31.749Z,94.06
2022-09-10T01:08:34.527Z,93.85
2022-09-10T01:11:50.312Z,93.30
2022-09-10T01:15:09.347Z,93.32
2022-09-10T01:18:30.344Z,93.17
2022-09-10T01:21:38.722Z,93.30
2022-09-10T01:24:54.314Z,93.03
2022-09-10T01:28:01.980Z,92.99
2022-09-10T01:31:12.069Z,93.01
2022-09-10T01:34:21.423Z,92.93
2022-09-10T01:37:29.260Z,92.81
2022-09-10T01:40:33.611Z,92.25
2022-09-10T01:43:38.036Z,92.27
2022-09-10T01:46:50.685Z,92.00
2022-09-10T01:50:15.330Z,91.96
2022-09-10T01:53:39.604Z,91.97
2022-09-10T01:56:50.728Z,91.65
2022-09-10T02:00:04.369Z,91.54
2022-09-10T02:03:11.368Z,91.50
2022-09-10T02:06:17.361Z,91.38
2022-09-10T02:09:21.215Z,91.45
2022-09-10T02:12:24.870Z,91.44
2022-09-10T02:15:32.545Z,91.29
2022-09-10T02:18:36.182Z,91.39
2022-09-10T02:21:39.148Z,91.16
2022-09-10T02:24:44.881Z,91.15
2022-09-10T02:27:49.030Z,91.19
2022-09-10T02:30:55.052Z,91.29
2022-09-10T02:33:57.780Z,91.01
2022-09-10T02:37:02.779Z,91.11
2022-09-10T02:40:06.626Z,90.96
2022-09-10T02:43:09.410Z,90.71
2022-09-10T02:46:13.825Z,90.81
2022-09-10T02:49:16.563Z,91.17
2022-09-10T02:52:19.295Z,90.94
2022-09-10T02:55:22.005Z,91.20
2022-09-10T02:58:25.307Z,91.08
2022-09-10T03:01:30.115Z,91.17
2022-09-10T03:04:32.956Z,91.53
2022-09-10T03:07:35.692Z,92.19
2022-09-10T03:10:39.855Z,92.13
2022-09-10T03:13:43.443Z,92.53
2022-09-10T03:16:48.276Z,92.54
2022-09-10T03:19:51.391Z,92.17
2022-09-10T03:22:54.161Z,92.40
2022-09-10T03:25:57.263Z,91.98
2022-09-10T03:29:00.365Z,92.15
2022-09-10T03:32:05.229Z,92.31
2022-09-10T03:35:10.099Z,92.30
2022-09-10T03:38:13.764Z,92.14
2022-09-10T03:41:16.973Z,91.99
2022-09-10T03:44:19.774Z,92.11
2022-09-10T03:47:24.041Z,92.24
2022-09-10T03:50:27.200Z,92.13
2022-09-10T03:53:29.901Z,92.30
2022-09-10T03:56:33.231Z,92.21
2022-09-10T03:59:37.038Z,92.68
2022-09-10T04:02:42.218Z,92.46
2022-09-10T04:05:45.019Z,92.66
2022-09-10T04:08:50.522Z,92.49
2022-09-10T04:11:53.216Z,92.68
2022-09-10T04:14:55.993Z,92.56
2022-09-10T04:18:03.099Z,92.71
2022-09-10T04:21:06.299Z,92.67
2022-09-10T04:24:12.145Z,92.62
2022-09-10T04:27:16.723Z,92.32
2022-09-10T04:30:20.011Z,92.41
2022-09-10T04:33:25.094Z,92.58
2022-09-10T04:36:28.323Z,92.53
2022-09-10T04:39:31.015Z,92.46
2022-09-10T04:42:33.832Z,92.51
2022-09-10T04:45:36.596Z,92.21
2022-09-10T04:48:40.879Z,92.24
2022-09-10T04:51:43.571Z,92.54
2022-09-10T04:54:46.727Z,92.25
2022-09-10T04:57:49.543Z,92.44
2022-09-10T05:00:52.484Z,92.24
2022-09-10T05:03:56.814Z,92.13
2022-09-10T05:06:59.692Z,92.02
2022-09-10T05:10:02.426Z,92.00
2022-09-10T05:13:05.225Z,92.17
2022-09-10T05:16:08.739Z,91.94
2022-09-10T05:19:18.078Z,91.83
2022-09-10T05:22:21.753Z,91.86
2022-09-10T05:25:25.449Z,91.62
2022-09-10T05:28:28.662Z,91.78
2022-09-10T05:31:31.990Z,91.82
2022-09-10T05:34:36.155Z,91.74
2022-09-10T05:37:39.278Z,91.87
2022-09-10T05:40:44.671Z,92.33
2022-09-10T05:43:47.481Z,92.38
2022-09-10T05:46:50.248Z,92.29
2022-09-10T05:49:55.293Z,92.33
2022-09-10T05:52:58.050Z,92.11
2022-09-10T05:56:00.958Z,92.24
2022-09-10T05:59:04.419Z,92.18
2022-09-10T06:02:08.181Z,92.11
2022-09-10T06:05:12.770Z,91.81
2022-09-10T06:08:16.397Z,91.75
2022-09-10T06:11:19.101Z,91.92
2022-09-10T06:14:22.575Z,91.83
2022-09-10T06:17:25.368Z,91.70
2022-09-10T06:20:30.272Z,91.79
2022-09-10T06:23:33.523Z,91.62
2022-09-10T06:26:37.070Z,91.54
2022-09-10T06:29:40.072Z,91.18
2022-09-10T06:32:43.185Z,91.32
2022-09-10T06:35:53.828Z,90.98
2022-09-10T06:38:57.697Z,90.66
2022-09-10T06:42:01.043Z,90.61
2022-09-10T06:45:03.960Z,90.52
2022-09-10T06:51:31.637Z,88.79
2022-09-10T06:54:34.378Z,88.32
2022-09-10T06:57:38.295Z,86.98
2022-09-10T07:00:41.845Z,86.32
2022-09-10T07:03:45.122Z,85.56
2022-09-10T07:06:49.338Z,85.19
2022-09-10T07:09:52.059Z,84.88
2022-09-10T07:12:55.062Z,84.90
2022-09-10T07:15:57.970Z,84.71
2022-09-10T07:19:02.240Z,84.83
2022-09-10T07:22:06.474Z,85.20
2022-09-10T07:25:09.997Z,85.44
2022-09-10T07:28:15.276Z,85.88
2022-09-10T07:31:20.861Z,86.25
2022-09-10T07:34:23.856Z,86.94
2022-09-10T07:37:28.324Z,87.36
2022-09-10T07:40:31.075Z,87.71
2022-09-10T07:43:33.923Z,87.94
2022-09-10T07:47:05.434Z,88.37
2022-09-10T07:50:12.096Z,88.57
2022-09-10T07:53:16.264Z,88.69
2022-09-10T07:56:19.545Z,89.05
2022-09-10T07:59:22.317Z,89.39
2022-09-10T08:02:25.991Z,89.43
2022-09-10T08:05:29.116Z,89.54
2022-09-10T08:08:38.252Z,89.87
2022-09-10T08:11:41.567Z,89.85
2022-09-10T08:14:44.310Z,90.04
2022-09-10T08:17:47.086Z,89.97
2022-09-10T08:20:55.097Z,89.66
2022-09-10T08:23:59.749Z,89.69
2022-09-10T08:27:02.613Z,89.87
2022-09-10T08:30:06.303Z,89.96
2022-09-10T08:33:10.673Z,90.11
2022-09-10T08:36:14.651Z,89.92
2022-09-10T08:39:19.106Z,90.06
2022-09-10T08:42:27.498Z,89.80
2022-09-10T08:45:34.039Z,89.60
2022-09-10T08:48:40.866Z,89.09
2022-09-10T08:51:50.073Z,88.53
2022-09-10T08:55:03.199Z,87.71
2022-09-10T08:58:14.260Z,86.63
2022-09-10T09:01:30.398Z,85.43
2022-09-10T09:04:41.676Z,84.29
2022-09-10T09:07:44.874Z,83.18
2022-09-10T09:10:51.683Z,82.18
2022-09-10T09:14:16.572Z,81.45
2022-09-10T09:17:43.771Z,80.39
2022-09-10T09:20:49.820Z,80.18
2022-09-10T09:24:13.265Z,78.81
2022-09-10T09:27:20.163Z,77.72
2022-09-10T09:30:25.801Z,76.77
2022-09-10T09:33:31.011Z,76.01
2022-09-10T09:36:41.123Z,75.43
2022-09-10T09:39:54.052Z,74.65
2022-09-10T09:43:02.240Z,74.48
2022-09-10T09:46:10.593Z,74.39
2022-09-10T09:49:16.154Z,74.16
2022-09-10T09:52:22.468Z,73.54
2022-09-10T09:55:32.933Z,73.26
2022-09-10T09:58:39.993Z,71.48
2022-09-10T10:01:43.364Z,69.87
2022-09-10T10:04:56.202Z,70.04
2022-09-10T10:07:59.096Z,70.23
2022-09-10T10:11:02.415Z,70.12
2022-09-10T10:14:22.939Z,69.17
2022-09-10T10:17:32.542Z,68.39
2022-09-10T10:20:41.534Z,67.92
2022-09-10T10:23:44.581Z,67.42
2022-09-10T10:26:49.281Z,66.09
2022-09-10T10:29:56.476Z,63.45
2022-09-10T10:33:02.890Z,63.35
2022-09-10T10:36:16.309Z,63.73
2022-09-10T10:39:28.632Z,64.13
2022-09-10T10:42:37.855Z,63.92
2022-09-10T10:45:56.085Z,63.15
2022-09-10T10:49:09.877Z,63.05
2022-09-10T10:52:21.594Z,62.85
2022-09-10T10:55:29.224Z,62.09
2022-09-10T10:58:53.950Z,61.95
2022-09-10T11:02:03.701Z,62.25
2022-09-10T11:05:20.402Z,62.89
2022-09-10T11:08:30.403Z,63.44
2022-09-10T11:11:40.152Z,63.51
2022-09-10T11:14:48.751Z,64.21
2022-09-10T11:17:58.419Z,64.61
2022-09-10T11:21:08.919Z,63.79
2022-09-10T11:24:17.246Z,63.88
2022-09-10T11:27:24.583Z,63.29
2022-09-10T11:30:27.271Z,62.88
2022-09-10T11:33:39.451Z,61.88
2022-09-10T11:36:48.018Z,61.10
2022-09-10T11:39:54.011Z,60.81
2022-09-10T11:43:02.324Z,60.08
2022-09-10T11:46:12.770Z,59.74
2022-09-10T11:49:22.536Z,59.00
2022-09-10T11:52:26.844Z,58.91
2022-09-10T11:55:44.187Z,58.71
2022-09-10T11:58:57.918Z,59.01
2022-09-10T12:02:19.500Z,60.04
2022-09-10T12:05:32.664Z,62.00
2022-09-10T12:08:48.510Z,64.82
2022-09-10T12:12:00.564Z,66.90
2022-09-10T12:15:09.455Z,68.13
2022-09-10T12:18:19.736Z,68.71
2022-09-10T12:21:32.437Z,68.69
2022-09-10T12:24:37.518Z,68.40
2022-09-10T12:27:49.099Z,68.26
2022-09-10T12:30:52.836Z,68.27
2022-09-10T12:34:18.002Z,67.87
2022-09-10T12:37:28.210Z,67.53
2022-09-10T12:40:45.357Z,66.79
2022-09-10T12:43:56.811Z,66.30
2022-09-10T12:47:28.898Z,65.73
2022-09-10T12:50:37.298Z,64.88
2022-09-10T12:54:02.580Z,65.33
2022-09-10T12:57:22.136Z,65.57
2022-09-10T13:00:28.045Z,65.46
2022-09-10T13:03:32.034Z,65.13
2022-09-10T13:06:38.583Z,64.88
2022-09-10T13:09:43.196Z,64.30
2022-09-10T13:12:46.823Z,63.85
2022-09-10T13:15:53.453Z,63.10
2022-09-10T13:19:34.654Z,62.74
2022-09-10T13:22:57.572Z,62.25
2022-09-10T13:26:48.691Z,63.52
2022-09-10T13:29:55.573Z,63.87
2022-09-10T13:33:01.892Z,64.58
2022-09-10T13:36:16.858Z,65.10
2022-09-10T13:40:03.737Z,65.48
2022-09-10T13:43:24.954Z,66.29
2022-09-10T13:46:35.223Z,66.36
2022-09-10T13:49:47.408Z,66.19
2022-09-10T13:52:55.283Z,65.70
2022-09-10T13:56:02.747Z,64.24
2022-09-10T13:59:07.716Z,64.28
2022-09-10T14:02:10.979Z,64.29
2022-09-10T14:05:30.671Z,63.89
2022-09-10T14:08:38.506Z,63.74
2022-09-10T14:11:44.062Z,62.80
2022-09-10T14:14:51.421Z,62.16
2022-09-10T14:17:58.425Z,61.68
2022-09-10T14:21:01.548Z,61.58
2022-09-10T14:24:04.335Z,60.80
2022-09-10T14:27:18.549Z,60.52
2022-09-10T14:30:26.590Z,60.55
2022-09-10T14:33:33.132Z,60.18
2022-09-10T14:36:36.032Z,59.54
2022-09-10T14:39:45.220Z,60.06
2022-09-10T14:42:50.741Z,59.27
2022-09-10T14:45:53.614Z,59.39
2022-09-10T14:49:09.542Z,60.29
2022-09-10T14:52:12.869Z,60.60
2022-09-10T14:55:16.851Z,60.60
2022-09-10T14:58:21.086Z,60.78
2022-09-10T15:01:24.570Z,60.25
2022-09-10T15:04:30.200Z,60.14
2022-09-10T15:07:33.293Z,60.04
2022-09-10T15:10:36.168Z,59.82
2022-09-10T15:13:43.586Z,59.82
2022-09-10T15:16:46.603Z,59.78
2022-09-10T15:19:49.922Z,59.85
2022-09-10T15:22:52.550Z,59.17
2022-09-10T15:25:58.241Z,58.99
2022-09-10T15:29:02.598Z,59.13
2022-09-10T15:32:05.806Z,59.13
2022-09-10T15:35:09.583Z,59.38
2022-09-10T15:38:13.669Z,59.46
2022-09-10T15:41:16.999Z,59.38
2022-09-10T15:44:23.459Z,59.69
2022-09-10T15:47:27.150Z,59.67
2022-09-10T15:50:29.893Z,59.58
2022-09-10T15:53:34.060Z,59.58
2022-09-10T15:56:36.789Z,59.41
2022-09-10T15:59:40.823Z,59.57
2022-09-10T16:02:47.266Z,59.44
2022-09-10T16:05:50.354Z,60.07
2022-09-10T16:08:56.609Z,60.17
2022-09-10T16:11:59.444Z,60.43
2022-09-10T16:15:03.738Z,60.75
2022-09-10T16:18:06.532Z,60.85
2022-09-10T16:21:11.746Z,61.02
2022-09-10T16:24:14.440Z,61.74
2022-09-10T16:27:17.663Z,62.49
2022-09-10T16:30:22.694Z,63.15
2022-09-10T16:33:25.536Z,63.38
2022-09-10T16:36:28.372Z,63.71
2022-09-10T16:39:31.075Z,64.25
2022-09-10T16:42:34.193Z,64.67
2022-09-10T16:45:38.251Z,64.69
2022-09-10T16:48:42.862Z,64.91
2022-09-10T16:51:47.220Z,65.21
2022-09-10T16:54:50.097Z,65.59
2022-09-10T16:57:52.910Z,65.89
2022-09-10T17:00:58.764Z,66.20
2022-09-10T17:04:03.276Z,66.39
2022-09-10T17:07:06.904Z,66.68
2022-09-10T17:10:10.615Z,66.98
2022-09-10T17:13:14.038Z,67.02
2022-09-10T17:16:25.191Z,67.13
2022-09-10T17:19:29.321Z,67.39
2022-09-10T17:22:32.485Z,67.54
2022-09-10T17:25:36.179Z,67.58
2022-09-10T17:28:40.456Z,68.40
2022-09-10T17:31:46.531Z,69.65
2022-09-10T17:34:51.499Z,71.29
2022-09-10T17:37:54.189Z,73.17
2022-09-10T17:41:00.155Z,74.31
2022-09-10T17:44:03.465Z,75.60
2022-09-10T17:47:09.624Z,75.78
2022-09-10T17:50:12.448Z,75.96
2022-09-10T17:53:15.665Z,76.12
2022-09-10T17:56:20.275Z,76.54
2022-09-10T17:59:25.141Z,77.12
2022-09-10T18:02:31.278Z,77.21
2022-09-10T18:05:39.685Z,77.59
2022-09-10T18:08:44.269Z,77.71
2022-09-10T18:11:47.513Z,78.04
2022-09-10T18:14:50.758Z,78.16
2022-09-10T18:17:55.974Z,78.30
2022-09-10T18:21:00.396Z,78.75
2022-09-10T18:24:05.270Z,78.98
2022-09-10T18:27:08.412Z,79.70
2022-09-10T18:30:12.092Z,79.93
2022-09-10T18:33:16.336Z,79.94
2022-09-10T18:36:20.425Z,80.67
2022-09-10T18:39:24.872Z,80.82
2022-09-10T18:42:27.782Z,80.56
2022-09-10T18:45:30.480Z,80.56
2022-09-10T18:48:35.110Z,80.81
2022-09-10T18:51:38.160Z,81.27
2022-09-10T18:54:45.894Z,81.38
2022-09-10T18:57:49.274Z,81.34
2022-09-10T19:00:55.445Z,81.25
2022-09-10T19:04:03.633Z,81.72
2022-09-10T19:07:06.796Z,81.55
2022-09-10T19:10:09.743Z,81.23
2022-09-10T19:13:12.497Z,81.26
2022-09-10T19:16:15.443Z,81.29
2022-09-10T19:19:22.248Z,81.87
2022-09-10T19:22:24.966Z,81.99
2022-09-10T19:25:27.991Z,81.77
2022-09-10T19:28:33.502Z,82.21
2022-09-10T19:31:36.540Z,82.55
2022-09-10T19:34:40.845Z,82.95
2022-09-10T19:37:43.587Z,82.81
2022-09-10T19:40:47.011Z,82.74
2022-09-10T19:43:51.283Z,82.78
2022-09-10T19:46:53.996Z,82.71
2022-09-10T19:49:59.093Z,82.80
2022-09-10T19:53:01.844Z,82.81
2022-09-10T19:56:06.288Z,82.80
2022-09-10T19:59:09.893Z,82.74
2022-09-10T20:02:12.736Z,82.77
2022-09-10T20:05:17.553Z,82.78
2022-09-10T20:08:20.292Z,82.76
2022-09-10T20:11:24.901Z,82.78
2022-09-10T20:14:28.238Z,82.97
2022-09-10T20:17:31.204Z,83.09
2022-09-10T20:20:35.351Z,82.86
2022-09-10T20:23:38.228Z,82.55
2022-09-10T20:26:41.783Z,82.69
2022-09-10T20:29:46.280Z,82.78
2022-09-10T20:32:49.032Z,82.91
2022-09-10T20:35:53.067Z,82.74
2022-09-10T20:38:57.728Z,82.68
2022-09-10T20:42:00.584Z,82.60
2022-09-10T20:45:03.499Z,82.49
2022-09-10T20:48:06.241Z,82.51
2022-09-10T20:51:10.788Z,82.78
2022-09-10T20:54:15.266Z,82.64
2022-09-10T20:57:17.993Z,82.83
2022-09-10T21:00:20.779Z,83.96
2022-09-10T21:03:23.491Z,84.03
2022-09-10T21:06:30.208Z,84.07
2022-09-10T21:09:32.938Z,84.13
2022-09-10T21:12:35.625Z,84.25
2022-09-10T21:15:38.610Z,84.24
2022-09-10T21:18:42.668Z,84.16
2022-09-10T21:21:49.082Z,83.93
2022-09-10T21:24:51.784Z,84.00
2022-09-10T21:27:54.797Z,83.54
2022-09-10T21:31:03.256Z,83.41
2022-09-10T21:34:06.416Z,83.54
2022-09-10T21:37:10.930Z,83.34
2022-09-10T21:40:13.716Z,83.22
2022-09-10T21:43:16.540Z,83.56
2022-09-10T21:46:19.695Z,83.25
2022-09-10T21:49:22.428Z,83.30
2022-09-10T21:52:26.501Z,83.31
2022-09-10T21:55:29.166Z,83.17
2022-09-10T21:58:34.246Z,83.36
2022-09-10T22:01:37.302Z,83.09
2022-09-10T22:04:40.027Z,83.06
2022-09-10T22:07:44.163Z,83.09
2022-09-10T22:10:47.472Z,82.66
2022-09-10T22:13:52.886Z,82.57
2022-09-10T22:16:56.104Z,82.85
2022-09-10T22:19:58.791Z,82.56
2022-09-10T22:23:03.537Z,82.68
2022-09-10T22:26:08.722Z,82.71
2022-09-10T22:29:12.874Z,82.71
2022-09-10T22:32:15.984Z,82.85
2022-09-10T22:35:18.976Z,82.52
2022-09-10T22:38:23.011Z,82.80
2022-09-10T22:41:27.406Z,82.94
2022-09-10T22:44:30.109Z,83.01
2022-09-10T22:47:33.127Z,83.06
2022-09-10T22:50:35.904Z,83.39
2022-09-10T22:53:41.794Z,83.50
2022-09-10T22:56:45.120Z,83.94
2022-09-10T22:59:47.844Z,84.10
2022-09-10T23:02:50.573Z,84.21
2022-09-10T23:06:03.477Z,84.37
2022-09-10T23:09:09.672Z,84.54
2022-09-10T23:12:12.346Z,84.39
2022-09-10T23:15:15.791Z,84.56
2022-09-10T23:18:18.867Z,84.96
2022-09-10T23:21:23.921Z,84.77
2022-09-10T23:24:28.521Z,84.79
2022-09-10T23:27:31.278Z,84.84
2022-09-10T23:30:36.209Z,84.94
2022-09-10T23:33:38.925Z,85.10
2022-09-10T23:36:45.019Z,85.51
2022-09-10T23:39:49.413Z,85.54
2022-09-10T23:42:52.110Z,86.05
2022-09-10T23:45:55.439Z,86.76
2022-09-10T23:48:58.460Z,87.37
2022-09-10T23:52:01.472Z,87.53
2022-09-10T23:55:06.411Z,87.90
2022-09-10T23:58:09.081Z,89.34
